Marathon, Ohio
Current Conditions -  °F | °C
As of 12:54 PM on Saturday 25 Oct 2014 (Local Time) from KILN Reporting Station
Light Rain Light Rain  
Wind Chill: 63°   Ceiling: 2200
Heat Index: 63°   Visibility: 7mi
Dew Point: 52°   Wind: 14mph
Humidity: 67%   Direction: 240°WSW
Pressure: 29.94"   Gusts: NA
Location:  39.14°N, 84.01°W
Report Text: KILN 251654Z AUTO 24012KT 7SM -RA OVC022 17/11 A2994 RMK AO2 RAE01B19 SLP145 P0000 T01720111
Loading
Personal Weather Stations






























Interactive Weather Map
Tropical Storm Tracking
New forecast layout! Learn more

10-Day Weather Forecast

Advertisements
Track Severe Weather on mobile